createdAt,value
2018-04-25T00:00:52.239Z,8.77
2018-04-25T00:03:20.412Z,10.00
2018-04-25T00:05:49.507Z,10.40
2018-04-25T00:08:17.664Z,8.67
2018-04-25T00:10:45.910Z,9.70
2018-04-25T00:13:14.962Z,9.40
2018-04-25T00:15:43.115Z,9.97
2018-04-25T00:18:11.448Z,9.33
2018-04-25T00:20:40.365Z,9.47
2018-04-25T00:23:08.599Z,8.50
2018-04-25T00:25:36.817Z,8.30
2018-04-25T00:28:04.975Z,9.40
2018-04-25T00:30:33.169Z,8.90
2018-04-25T00:33:01.355Z,10.30
2018-04-25T00:35:29.541Z,10.30
2018-04-25T00:37:57.721Z,9.73
2018-04-25T00:40:26.703Z,10.33
2018-04-25T00:42:54.804Z,8.70
2018-04-25T00:45:23.108Z,9.63
2018-04-25T00:47:51.577Z,9.90
2018-04-25T00:50:19.756Z,9.00
2018-04-25T00:52:48.722Z,8.63
2018-04-25T00:55:17.684Z,10.17
2018-04-25T00:57:45.905Z,9.63
2018-04-25T01:00:14.881Z,8.63
2018-04-25T01:02:43.487Z,8.67
2018-04-25T01:05:11.668Z,9.60
2018-04-25T01:07:39.782Z,9.30
2018-04-25T01:10:08.125Z,9.40
2018-04-25T01:12:36.336Z,10.50
2018-04-25T01:15:04.617Z,9.30
2018-04-25T01:17:32.821Z,8.10
2018-04-25T01:20:01.029Z,9.13
2018-04-25T01:22:29.165Z,9.20
2018-04-25T01:24:59.808Z,8.77
2018-04-25T01:27:30.867Z,9.60
2018-04-25T01:29:59.100Z,8.90
2018-04-25T01:32:27.342Z,8.47
2018-04-25T01:34:58.580Z,8.93
2018-04-25T01:37:33.564Z,9.50
2018-04-25T01:40:09.612Z,9.17
2018-04-25T01:42:37.835Z,9.10
2018-04-25T01:48:15.376Z,8.43
2018-04-25T01:50:44.395Z,9.07
2018-04-25T01:53:25.428Z,8.17
2018-04-25T01:56:06.204Z,9.07
2018-04-25T01:58:46.188Z,8.93
2018-04-25T02:01:20.038Z,8.70
2018-04-25T02:03:53.122Z,7.93
2018-04-25T02:06:22.226Z,7.53
2018-04-25T02:08:50.391Z,6.67
2018-04-25T02:11:18.568Z,7.73
2018-04-25T02:13:46.696Z,7.37
2018-04-25T02:16:15.212Z,8.07
2018-04-25T02:18:44.322Z,7.83
2018-04-25T02:21:12.473Z,7.70
2018-04-25T02:23:40.651Z,7.10
2018-04-25T02:26:08.744Z,7.37
2018-04-25T02:28:37.684Z,6.80
2018-04-25T02:31:05.943Z,6.93
2018-04-25T02:33:34.224Z,6.83
2018-04-25T02:36:02.471Z,6.23
2018-04-25T02:38:30.654Z,6.90
2018-04-25T02:40:59.568Z,6.53
2018-04-25T02:43:28.253Z,6.67
2018-04-25T02:45:57.005Z,6.87
2018-04-25T02:48:25.290Z,6.43
2018-04-25T02:50:53.445Z,6.00
2018-04-25T02:53:21.672Z,6.17
2018-04-25T02:55:50.729Z,6.40
2018-04-25T02:58:19.646Z,5.77
2018-04-25T03:00:48.579Z,5.57
2018-04-25T03:03:17.471Z,5.30
2018-04-25T03:05:45.671Z,5.50
2018-04-25T03:08:13.947Z,5.67
2018-04-25T03:10:42.161Z,5.30
2018-04-25T03:13:10.304Z,5.23
2018-04-25T03:15:38.474Z,5.40
2018-04-25T03:18:06.562Z,4.87
2018-04-25T03:20:34.695Z,5.63
2018-04-25T03:23:03.078Z,5.37
2018-04-25T03:25:31.349Z,5.20
2018-04-25T03:27:59.720Z,4.97
2018-04-25T03:30:27.848Z,5.63
2018-04-25T03:32:56.141Z,5.27
2018-04-25T03:35:25.013Z,4.27
2018-04-25T03:37:53.187Z,4.77
2018-04-25T03:40:22.202Z,3.73
2018-04-25T03:42:51.108Z,5.27
2018-04-25T03:45:19.459Z,4.37
2018-04-25T03:47:48.433Z,4.80
2018-04-25T03:50:17.661Z,4.77
2018-04-25T03:52:45.884Z,4.67
2018-04-25T03:55:14.020Z,4.20
2018-04-25T03:57:42.268Z,4.10
2018-04-25T04:00:10.448Z,3.63
2018-04-25T04:02:38.572Z,4.03
2018-04-25T04:05:06.728Z,3.20
2018-04-25T04:07:34.925Z,3.67
2018-04-25T04:10:03.068Z,3.60
2018-04-25T04:12:31.828Z,3.20
2018-04-25T04:14:59.952Z,3.73
2018-04-25T04:17:29.356Z,3.97
2018-04-25T04:19:57.508Z,3.00
2018-04-25T04:22:25.762Z,3.20
2018-04-25T04:24:53.980Z,2.53
2018-04-25T04:27:22.133Z,2.20
2018-04-25T04:29:50.384Z,2.70
2018-04-25T04:32:19.728Z,2.93
2018-04-25T04:34:47.934Z,2.17
2018-04-25T04:37:16.828Z,2.40
2018-04-25T04:39:45.016Z,2.40
2018-04-25T04:42:13.129Z,2.53
2018-04-25T04:44:41.386Z,2.20
2018-04-25T04:47:09.507Z,1.90
2018-04-25T04:49:37.717Z,2.53
2018-04-25T04:52:05.756Z,2.70
2018-04-25T04:54:33.849Z,2.70
2018-04-25T04:57:02.856Z,2.93
2018-04-25T04:59:30.953Z,2.23
2018-04-25T05:01:59.827Z,2.30
2018-04-25T05:04:28.009Z,2.53
2018-04-25T05:06:56.886Z,2.63
2018-04-25T05:09:26.158Z,3.07
2018-04-25T05:11:54.361Z,3.37
2018-04-25T05:14:22.648Z,3.77
2018-04-25T05:16:52.388Z,3.40
2018-04-25T05:19:21.307Z,2.80
2018-04-25T05:21:49.432Z,2.70
2018-04-25T05:24:17.960Z,2.87
2018-04-25T05:26:46.929Z,2.93
2018-04-25T05:29:15.369Z,3.60
2018-04-25T05:31:43.491Z,3.13
2018-04-25T05:34:12.531Z,3.20
2018-04-25T05:36:41.567Z,3.07
2018-04-25T05:39:09.700Z,2.97
2018-04-25T05:41:38.031Z,3.70
2018-04-25T05:44:07.583Z,3.30
2018-04-25T05:46:35.752Z,5.17
2018-04-25T05:49:04.059Z,3.53
2018-04-25T05:51:32.207Z,4.47
2018-04-25T05:54:02.538Z,3.80
2018-04-25T05:56:32.406Z,3.97
2018-04-25T05:59:00.636Z,3.73
2018-04-25T06:01:28.836Z,3.87
2018-04-25T06:03:56.936Z,3.50
2018-04-25T06:06:25.272Z,2.90
2018-04-25T06:08:53.448Z,4.10
2018-04-25T06:11:22.805Z,3.20
2018-04-25T06:13:51.100Z,2.50
2018-04-25T06:16:19.239Z,2.40
2018-04-25T06:18:48.481Z,2.67
2018-04-25T06:21:16.654Z,2.20
2018-04-25T06:23:46.149Z,2.40
2018-04-25T06:26:14.281Z,2.93
2018-04-25T06:28:42.460Z,2.53
2018-04-25T06:31:10.665Z,1.67
2018-04-25T06:33:38.777Z,1.60
2018-04-25T06:36:07.016Z,1.90
2018-04-25T06:38:35.185Z,2.93
2018-04-25T06:41:03.814Z,1.50
2018-04-25T06:43:32.021Z,2.00
2018-04-25T06:46:00.912Z,1.90
2018-04-25T06:48:29.116Z,2.17
2018-04-25T06:50:57.255Z,1.40
2018-04-25T06:53:25.387Z,1.57
2018-04-25T06:55:53.539Z,1.77
2018-04-25T06:58:22.416Z,1.40
2018-04-25T07:00:50.652Z,1.50
2018-04-25T07:03:19.483Z,1.70
2018-04-25T07:05:47.602Z,0.90
2018-04-25T07:08:15.786Z,0.83
2018-04-25T07:10:44.645Z,1.20
2018-04-25T07:13:12.782Z,1.03
2018-04-25T07:15:41.666Z,1.00
2018-04-25T07:18:09.784Z,1.43
2018-04-25T07:20:37.881Z,1.00
2018-04-25T07:23:06.988Z,0.83
2018-04-25T07:25:35.092Z,1.00
2018-04-25T07:28:03.231Z,0.57
2018-04-25T07:30:32.135Z,1.47
2018-04-25T07:33:00.224Z,0.80
2018-04-25T07:35:28.411Z,0.70
2018-04-25T07:37:56.483Z,0.73
2018-04-25T07:40:24.603Z,0.73
2018-04-25T07:42:52.720Z,1.70
2018-04-25T07:45:21.772Z,1.10
2018-04-25T07:47:50.038Z,1.13
2018-04-25T07:50:18.257Z,0.97
2018-04-25T07:52:46.353Z,0.60
2018-04-25T07:55:15.220Z,0.77
2018-04-25T07:57:43.475Z,0.60
2018-04-25T08:00:12.539Z,0.63
2018-04-25T08:02:40.757Z,0.50
2018-04-25T08:05:09.070Z,0.60
2018-04-25T08:07:37.443Z,0.47
2018-04-25T08:10:05.590Z,0.80
2018-04-25T08:12:46.063Z,0.60
2018-04-25T08:15:25.941Z,0.60
2018-04-25T08:18:06.695Z,0.57
2018-04-25T08:21:10.311Z,0.70
2018-04-25T08:23:39.192Z,0.40
2018-04-25T08:26:07.529Z,0.30
2018-04-25T08:28:35.704Z,0.80
2018-04-25T08:31:05.094Z,0.60
2018-04-25T08:33:33.460Z,0.83
2018-04-25T08:36:01.885Z,0.60
2018-04-25T08:38:30.346Z,0.63
2018-04-25T08:40:58.461Z,1.53
2018-04-25T08:43:27.123Z,0.70
2018-04-25T08:45:55.702Z,0.73
2018-04-25T08:48:23.904Z,0.70
2018-04-25T08:50:52.140Z,0.50
2018-04-25T08:53:20.546Z,0.40
2018-04-25T08:55:48.983Z,0.60
2018-04-25T08:58:17.708Z,0.70
2018-04-25T09:00:46.002Z,1.00
2018-04-25T09:03:15.047Z,0.80
2018-04-25T09:05:43.282Z,0.93
2018-04-25T09:08:12.256Z,0.73
2018-04-25T09:10:40.468Z,1.73
2018-04-25T09:13:08.653Z,0.53
2018-04-25T09:15:37.131Z,0.80
2018-04-25T09:18:05.240Z,1.43
2018-04-25T09:20:34.162Z,0.47
2018-04-25T09:23:02.299Z,0.80
2018-04-25T09:25:30.405Z,0.67
2018-04-25T09:27:58.564Z,0.77
2018-04-25T09:30:26.769Z,0.70
2018-04-25T09:32:55.015Z,1.30
2018-04-25T09:35:23.479Z,0.67
2018-04-25T09:37:51.599Z,0.87
2018-04-25T09:40:19.864Z,1.13
2018-04-25T09:42:48.156Z,1.23
2018-04-25T09:45:16.629Z,0.90
2018-04-25T09:47:44.889Z,1.50
2018-04-25T09:50:14.662Z,0.80
2018-04-25T09:52:42.877Z,0.53
2018-04-25T09:55:11.089Z,0.97
2018-04-25T09:57:40.026Z,1.10
2018-04-25T10:00:08.956Z,1.23
2018-04-25T10:02:37.150Z,1.07
2018-04-25T10:05:05.288Z,1.00
2018-04-25T10:07:33.521Z,1.00
2018-04-25T10:10:01.743Z,16.50
2018-04-25T10:12:29.884Z,13.33
2018-04-25T10:14:58.060Z,12.53
2018-04-25T10:17:26.392Z,13.77
2018-04-25T10:19:54.625Z,12.03
2018-04-25T10:22:23.546Z,10.17
2018-04-25T10:24:51.775Z,8.57
2018-04-25T10:27:19.899Z,8.33
2018-04-25T10:29:48.102Z,6.07
2018-04-25T10:32:16.234Z,5.60
2018-04-25T10:34:44.541Z,5.77
2018-04-25T10:37:12.773Z,3.10
2018-04-25T10:39:41.666Z,4.60
2018-04-25T10:42:09.846Z,4.23
2018-04-25T10:44:37.952Z,3.20
2018-04-25T10:47:06.076Z,3.10
2018-04-25T10:49:34.452Z,3.10
2018-04-25T10:52:02.596Z,2.13
2018-04-25T10:54:30.784Z,3.00
2018-04-25T10:56:58.909Z,2.33
2018-04-25T10:59:27.755Z,2.77
2018-04-25T11:01:56.731Z,2.17
2018-04-25T11:04:25.029Z,2.40
2018-04-25T11:06:53.751Z,2.20
2018-04-25T11:09:21.928Z,2.63
2018-04-25T11:11:50.093Z,2.20
2018-04-25T11:14:18.275Z,1.97
2018-04-25T11:16:47.016Z,2.27
2018-04-25T11:19:15.748Z,1.57
2018-04-25T11:21:44.716Z,1.73
2018-04-25T11:24:13.891Z,1.70
2018-04-25T11:26:42.031Z,1.70
2018-04-25T11:29:10.160Z,1.77
2018-04-25T11:31:39.513Z,1.33
2018-04-25T11:34:07.699Z,1.70
2018-04-25T11:36:36.040Z,1.57
2018-04-25T11:39:04.148Z,1.93
2018-04-25T11:41:32.282Z,1.40
2018-04-25T11:44:01.162Z,1.43
2018-04-25T11:46:30.027Z,1.37
2018-04-25T11:48:58.213Z,1.30
2018-04-25T11:51:26.393Z,0.80
2018-04-25T11:53:54.524Z,0.90
2018-04-25T11:56:22.636Z,1.40
2018-04-25T11:58:50.811Z,0.83
2018-04-25T12:01:18.976Z,1.30
2018-04-25T12:03:47.146Z,1.10
2018-04-25T12:06:15.316Z,1.00
2018-04-25T12:08:43.416Z,0.80
2018-04-25T12:11:11.516Z,0.93
2018-04-25T12:13:39.762Z,1.03
2018-04-25T12:16:07.929Z,1.10
2018-04-25T12:18:36.149Z,0.90
2018-04-25T12:21:04.287Z,0.90
2018-04-25T12:23:32.408Z,0.80
2018-04-25T12:26:00.570Z,0.90
2018-04-25T12:28:28.734Z,0.90
2018-04-25T12:30:56.959Z,1.10
2018-04-25T12:33:25.860Z,0.97
2018-04-25T12:35:54.066Z,0.70
2018-04-25T12:38:22.139Z,0.93
2018-04-25T12:40:50.388Z,0.77
2018-04-25T12:43:18.604Z,0.77
2018-04-25T12:45:46.795Z,0.77
2018-04-25T12:48:14.922Z,0.87
2018-04-25T12:50:43.132Z,0.77
2018-04-25T12:53:11.279Z,0.60
2018-04-25T12:55:41.508Z,0.60
2018-04-25T12:58:10.501Z,0.80
2018-04-25T13:00:38.661Z,0.53
2018-04-25T13:03:06.881Z,0.80
2018-04-25T13:05:35.868Z,0.80
2018-04-25T13:08:04.827Z,0.90
2018-04-25T13:10:33.081Z,1.10
2018-04-25T13:13:01.269Z,0.97
2018-04-25T13:15:29.571Z,1.10
2018-04-25T13:17:57.830Z,1.20
2018-04-25T13:20:26.081Z,1.33
2018-04-25T13:22:54.208Z,1.40
2018-04-25T13:25:22.457Z,1.10
2018-04-25T13:27:53.199Z,1.20
2018-04-25T13:30:21.440Z,0.97
2018-04-25T13:32:50.347Z,1.40
2018-04-25T13:35:18.640Z,1.30
2018-04-25T13:37:46.746Z,1.77
2018-04-25T13:40:15.371Z,1.17
2018-04-25T13:42:44.285Z,1.33
2018-04-25T13:45:12.465Z,1.37
2018-04-25T13:47:40.718Z,1.20
2018-04-25T13:50:09.639Z,1.47
2018-04-25T13:52:37.897Z,1.30
2018-04-25T13:55:07.822Z,2.80
2018-04-25T13:57:36.693Z,1.60
2018-04-25T14:00:05.302Z,1.83
2018-04-25T14:02:33.473Z,2.00
2018-04-25T14:05:02.398Z,2.03
2018-04-25T14:07:30.687Z,1.70
2018-04-25T14:09:58.872Z,1.80
2018-04-25T14:12:27.028Z,1.80
2018-04-25T14:14:55.221Z,1.97
2018-04-25T14:17:23.992Z,2.23
2018-04-25T14:19:52.841Z,1.90
2018-04-25T14:22:20.955Z,2.30
2018-04-25T14:24:49.234Z,2.30
2018-04-25T14:27:17.432Z,2.93
2018-04-25T14:29:46.007Z,2.83
2018-04-25T14:32:14.388Z,2.40
2018-04-25T14:34:43.698Z,2.30
2018-04-25T14:37:12.051Z,2.60
2018-04-25T14:39:40.359Z,2.50
2018-04-25T14:42:09.556Z,2.57
2018-04-25T14:44:38.400Z,2.60
2018-04-25T14:47:06.512Z,2.70
2018-04-25T14:49:36.121Z,2.70
2018-04-25T14:52:05.038Z,2.80
2018-04-25T14:54:33.350Z,2.37
2018-04-25T14:57:02.252Z,2.30
2018-04-25T14:59:30.475Z,2.93
2018-04-25T15:01:59.709Z,2.70
2018-04-25T15:04:27.953Z,3.13
2018-04-25T15:06:56.187Z,3.37
2018-04-25T15:09:24.454Z,2.90
2018-04-25T15:11:52.809Z,3.77
2018-04-25T15:14:21.480Z,3.73
2018-04-25T15:16:49.732Z,3.37
2018-04-25T15:19:17.935Z,3.30
2018-04-25T15:21:46.026Z,3.80
2018-04-25T15:24:14.227Z,3.73
2018-04-25T15:26:42.476Z,3.60
2018-04-25T15:29:10.587Z,3.20
2018-04-25T15:31:39.577Z,3.20
2018-04-25T15:34:07.696Z,3.33
2018-04-25T15:36:35.895Z,4.40
2018-04-25T15:39:04.094Z,3.57
2018-04-25T15:41:32.992Z,3.57
2018-04-25T15:44:01.988Z,3.00
2018-04-25T15:46:31.313Z,3.60
2018-04-25T15:48:59.575Z,3.03
2018-04-25T15:51:28.489Z,3.27
2018-04-25T15:53:56.799Z,2.37
2018-04-25T15:56:25.039Z,3.37
2018-04-25T15:58:53.260Z,2.90
2018-04-25T16:01:21.441Z,3.30
2018-04-25T16:03:49.767Z,2.80
2018-04-25T16:06:18.701Z,2.97
2018-04-25T16:08:47.430Z,3.03
2018-04-25T16:11:15.905Z,2.93
2018-04-25T16:13:45.684Z,3.10
2018-04-25T16:16:13.933Z,4.03
2018-04-25T16:18:42.186Z,2.90
2018-04-25T16:21:10.474Z,2.70
2018-04-25T16:23:38.582Z,3.37
2018-04-25T16:26:06.772Z,2.87
2018-04-25T16:28:35.082Z,2.67
2018-04-25T16:31:03.988Z,2.47
2018-04-25T16:33:32.981Z,2.37
2018-04-25T16:36:01.235Z,2.50
2018-04-25T16:38:29.368Z,2.30
2018-04-25T16:40:57.435Z,1.90
2018-04-25T16:43:25.532Z,2.10
2018-04-25T16:45:53.870Z,2.23
2018-04-25T16:48:22.025Z,2.67
2018-04-25T16:50:50.210Z,2.43
2018-04-25T16:53:18.429Z,1.83
2018-04-25T16:55:47.432Z,2.00
2018-04-25T16:58:15.702Z,1.73
2018-04-25T17:00:44.593Z,2.10
2018-04-25T17:03:13.534Z,2.30
2018-04-25T17:05:41.809Z,2.00
2018-04-25T17:08:09.954Z,1.90
2018-04-25T17:10:38.156Z,2.50
2018-04-25T17:13:07.041Z,1.70
2018-04-25T17:15:35.949Z,2.03
2018-04-25T17:18:04.134Z,2.30
2018-04-25T17:20:32.427Z,1.93
2018-04-25T17:23:00.841Z,1.90
2018-04-25T17:25:29.205Z,1.90
2018-04-25T17:27:58.203Z,1.90
2018-04-25T17:30:26.314Z,2.30
2018-04-25T17:32:54.613Z,3.90
2018-04-25T17:35:22.991Z,2.40
2018-04-25T17:37:52.209Z,1.80
2018-04-25T17:40:20.456Z,2.20
2018-04-25T17:42:48.890Z,2.37
2018-04-25T17:45:16.949Z,2.33
2018-04-25T17:47:45.143Z,2.33
2018-04-25T17:50:13.384Z,2.23
2018-04-25T17:52:42.675Z,1.83
2018-04-25T17:55:10.777Z,2.17
2018-04-25T17:57:40.329Z,2.40
2018-04-25T18:00:08.457Z,2.20
2018-04-25T18:02:37.364Z,2.33
2018-04-25T18:05:06.456Z,2.13
2018-04-25T18:07:35.513Z,2.57
2018-04-25T18:10:03.648Z,2.30
2018-04-25T18:12:31.889Z,2.50
2018-04-25T18:15:00.130Z,2.37
2018-04-25T18:17:28.349Z,1.93
2018-04-25T18:19:56.648Z,2.07
2018-04-25T18:22:24.809Z,1.90
2018-04-25T18:24:52.967Z,2.07
2018-04-25T18:27:21.271Z,2.33
2018-04-25T18:29:49.379Z,2.27
2018-04-25T18:32:18.308Z,2.07
2018-04-25T18:34:46.409Z,2.07
2018-04-25T18:37:35.537Z,1.87
2018-04-25T18:40:04.569Z,1.93
2018-04-25T18:42:32.925Z,1.93
2018-04-25T18:45:01.058Z,1.83
2018-04-25T18:47:29.403Z,2.27
2018-04-25T18:49:57.595Z,2.07
2018-04-25T18:52:25.807Z,2.27
2018-04-25T18:54:54.771Z,1.83
2018-04-25T18:57:22.895Z,1.90
2018-04-25T18:59:51.073Z,2.20
2018-04-25T19:02:19.229Z,1.90
2018-04-25T19:04:48.178Z,1.80
2018-04-25T19:07:16.301Z,2.03
2018-04-25T19:09:45.184Z,2.13
2018-04-25T19:12:14.122Z,1.60
2018-04-25T19:14:42.328Z,1.70
2018-04-25T19:17:11.319Z,1.73
2018-04-25T19:19:39.560Z,1.80
2018-04-25T19:22:07.717Z,2.07
2018-04-25T19:24:35.935Z,2.43
2018-04-25T19:27:04.154Z,1.77
2018-04-25T19:29:32.436Z,2.40
2018-04-25T19:32:01.395Z,1.83
2018-04-25T19:34:29.527Z,2.20
2018-04-25T19:36:58.464Z,1.97
2018-04-25T19:39:26.621Z,1.90
2018-04-25T19:41:54.748Z,2.07
2018-04-25T19:44:22.948Z,2.30
2018-04-25T19:46:51.188Z,2.53
2018-04-25T19:49:19.495Z,2.23
2018-04-25T19:51:48.577Z,2.00
2018-04-25T19:54:16.812Z,2.10
2018-04-25T19:56:44.909Z,2.40
2018-04-25T19:59:13.025Z,2.43
2018-04-25T20:01:41.168Z,2.80
2018-04-25T20:04:10.073Z,2.40
2018-04-25T20:06:39.714Z,3.07
2018-04-25T20:09:08.224Z,2.47
2018-04-25T20:11:36.485Z,3.77
2018-04-25T20:14:04.685Z,2.70
2018-04-25T20:16:33.568Z,2.43
2018-04-25T20:19:02.473Z,2.83
2018-04-25T20:21:31.344Z,2.40
2018-04-25T20:23:59.939Z,2.73
2018-04-25T20:26:28.128Z,2.63
2018-04-25T20:28:56.361Z,2.43
2018-04-25T20:31:24.491Z,3.07
2018-04-25T20:33:52.680Z,2.67
2018-04-25T20:36:21.109Z,2.70
2018-04-25T20:38:49.255Z,3.10
2018-04-25T20:41:18.356Z,2.47
2018-04-25T20:43:47.239Z,3.30
2018-04-25T20:46:15.737Z,2.77
2018-04-25T20:48:43.861Z,3.47
2018-04-25T20:51:12.061Z,3.07
2018-04-25T20:53:41.072Z,3.17
2018-04-25T20:56:09.976Z,4.13
2018-04-25T20:58:38.555Z,3.40
2018-04-25T21:01:06.787Z,3.40
2018-04-25T21:03:34.939Z,3.13
2018-04-25T21:06:03.159Z,2.50
2018-04-25T21:08:32.115Z,3.20
2018-04-25T21:11:00.323Z,3.30
2018-04-25T21:13:28.560Z,3.10
2018-04-25T21:15:57.547Z,3.60
2018-04-25T21:18:26.579Z,2.93
2018-04-25T21:20:54.823Z,3.57
2018-04-25T21:23:23.129Z,3.13
2018-04-25T21:25:51.307Z,3.37
2018-04-25T21:28:19.585Z,3.37
2018-04-25T21:30:47.707Z,4.87
2018-04-25T21:33:15.862Z,3.73
2018-04-25T21:35:43.971Z,3.70
2018-04-25T21:38:12.308Z,3.37
2018-04-25T21:40:40.472Z,3.07
2018-04-25T21:43:08.767Z,2.97
2018-04-25T21:45:37.881Z,3.93
2018-04-25T21:48:06.262Z,3.60
2018-04-25T21:50:34.554Z,3.30
2018-04-25T21:53:02.765Z,3.43
2018-04-25T21:55:31.965Z,3.23
2018-04-25T21:58:00.505Z,3.60
2018-04-25T22:00:29.461Z,3.30
2018-04-25T22:02:57.664Z,3.47
2018-04-25T22:05:26.804Z,3.47
2018-04-25T22:07:54.976Z,3.63
2018-04-25T22:10:23.095Z,3.70
2018-04-25T22:12:51.991Z,3.57
2018-04-25T22:15:20.425Z,4.10
2018-04-25T22:17:48.524Z,3.13
2018-04-25T22:20:16.695Z,3.33
2018-04-25T22:22:45.643Z,3.50
2018-04-25T22:25:13.773Z,3.20
2018-04-25T22:27:41.916Z,3.27
2018-04-25T22:30:10.892Z,3.43
2018-04-25T22:32:39.068Z,3.20
2018-04-25T22:35:07.198Z,2.67
2018-04-25T22:37:35.456Z,3.17
2018-04-25T22:40:03.705Z,2.80
2018-04-25T22:42:31.852Z,3.57
2018-04-25T22:45:02.367Z,3.10
2018-04-25T22:47:30.581Z,3.37
2018-04-25T22:49:58.771Z,2.87
2018-04-25T22:52:27.151Z,2.83
2018-04-25T22:54:55.288Z,3.70
2018-04-25T22:57:23.460Z,3.17
2018-04-25T22:59:51.724Z,3.00
2018-04-25T23:02:20.086Z,3.70
2018-04-25T23:04:48.306Z,2.70
2018-04-25T23:07:16.481Z,3.60
2018-04-25T23:09:44.596Z,3.20
2018-04-25T23:12:12.813Z,3.50
2018-04-25T23:14:40.915Z,2.77
2018-04-25T23:17:09.813Z,2.73
2018-04-25T23:19:37.967Z,2.90
2018-04-25T23:22:06.250Z,2.50
2018-04-25T23:24:35.418Z,2.77
2018-04-25T23:27:03.642Z,2.90
2018-04-25T23:29:32.029Z,2.70
2018-04-25T23:32:00.296Z,2.90
2018-04-25T23:34:28.506Z,2.80
2018-04-25T23:36:56.720Z,2.90
2018-04-25T23:39:24.854Z,3.27
2018-04-25T23:41:53.756Z,2.90
2018-04-25T23:44:22.658Z,2.77
2018-04-25T23:46:51.626Z,2.70
2018-04-25T23:49:19.735Z,2.93
2018-04-25T23:51:47.836Z,2.70
2018-04-25T23:54:16.011Z,2.60
2018-04-25T23:56:44.154Z,2.60
2018-04-25T23:59:12.339Z,2.60
